Time;durP1;ratioP1;P1;durP2;ratioP2;P2;SDS_P1;SDS_P2;PMS_P1;PMS_P2;Temp;Humidity;BMP_temperature;BMP_pressure;BME280_temperature;BME280_humidity;BME280_pressure;Samples;Min_cycle;Max_cycle;Signal;HPM_P1;HPM_P2
2022/05/06 00:02:15;;;;;;;;;48.00;39.00;;;;;13.09;97.30;100045.94;6317205;20;2856563;-52
2022/05/06 00:04:44;;;;;;;;;46.67;40.33;;;;;13.09;97.10;100048.63;6319145;20;3587759;-51
2022/05/06 00:07:14;;;;;;;;;51.00;41.33;;;;;13.23;97.02;100047.69;6283648;20;3597084;-53
2022/05/06 00:09:44;;;;;;;;;47.00;38.00;;;;;13.26;96.27;100042.97;6320689;20;3613798;-53
2022/05/06 00:12:17;;;;;;;;;46.33;38.00;;;;;13.20;96.79;100042.50;6287025;20;3601268;-54
2022/05/06 00:14:47;;;;;;;;;48.67;38.33;;;;;13.09;97.97;100040.53;6282397;20;2858620;-53
2022/05/06 00:17:16;;;;;;;;;50.00;41.00;;;;;13.14;97.87;100038.41;6319840;20;3586763;-54
2022/05/06 00:19:46;;;;;;;;;46.67;38.00;;;;;13.14;97.88;100033.00;6283701;20;2849228;-53
2022/05/06 00:22:14;;;;;;;;;46.00;38.33;;;;;12.93;98.66;100046.94;6317652;20;3623160;-53
2022/05/06 00:24:43;;;;;;;;;50.00;40.00;;;;;12.99;98.16;100039.41;6284774;20;2856522;-53
2022/05/06 00:27:13;;;;;;;;;49.00;40.33;;;;;13.12;98.63;100037.63;6282261;20;2868095;-51
2022/05/06 00:29:42;;;;;;;;;45.67;39.00;;;;;13.04;98.02;100040.84;6317051;20;3586668;-51
2022/05/06 00:32:11;;;;;;;;;47.50;39.50;;;;;12.82;99.29;100033.31;6283948;20;2846071;-54
2022/05/06 00:34:41;;;;;;;;;41.33;37.67;;;;;13.12;99.23;100029.53;6282904;20;2858619;-52
2022/05/06 00:37:10;;;;;;;;;34.67;33.67;;;;;12.94;98.72;100024.38;6319271;20;3605435;-55
2022/05/06 00:39:38;;;;;;;;;43.50;38.00;;;;;13.25;98.32;100030.44;6283488;20;2846090;-53
2022/05/06 00:42:08;;;;;;;;;45.00;38.00;;;;;13.40;95.76;100036.66;6284310;20;2844046;-55
2022/05/06 00:44:36;;;;;;;;;39.00;36.00;;;;;13.46;94.83;100038.09;6284822;20;2841983;-52
2022/05/06 00:47:05;;;;;;;;;43.67;37.00;;;;;13.46;93.50;100038.94;6286027;20;3622198;-54
2022/05/06 00:49:36;;;;;;;;;38.33;33.67;;;;;13.46;93.24;100049.75;6282266;20;3604407;-53
2022/05/06 00:52:07;;;;;;;;;41.33;35.67;;;;;13.46;92.90;100049.75;6281280;20;2856785;-54
2022/05/06 00:54:39;;;;;;;;;37.67;34.33;;;;;13.43;92.88;100049.97;6314601;20;3617018;-54
2022/05/06 00:57:09;;;;;;;;;40.00;34.67;;;;;13.22;94.36;100054.03;6282426;20;2853511;-53
2022/05/06 01:02:26;;;;;;;;;42.00;37.00;;;;;13.06;95.71;100063.16;6315986;20;2837803;-51
2022/05/06 01:04:59;;;;;;;;;37.00;33.33;;;;;13.28;93.16;100056.38;6284276;20;2865003;-53
2022/05/06 01:07:29;;;;;;;;;39.67;36.00;;;;;13.27;93.83;100054.63;6315737;20;3592329;-53
2022/05/06 01:09:58;;;;;;;;;43.00;36.33;;;;;13.28;92.88;100054.53;6283272;20;3605494;-52
2022/05/06 01:12:27;;;;;;;;;42.67;35.00;;;;;13.16;94.94;100060.69;6281321;20;2854517;-52
2022/05/06 01:14:56;;;;;;;;;41.33;37.33;;;;;13.34;92.69;100062.22;6318165;20;3610714;-55
2022/05/06 01:17:25;;;;;;;;;38.33;34.67;;;;;13.01;94.21;100062.59;6283492;20;3601256;-51
2022/05/06 01:19:54;;;;;;;;;38.33;35.00;;;;;13.27;93.28;100063.59;6286963;20;3603327;-51
2022/05/06 01:22:23;;;;;;;;;33.33;31.67;;;;;13.00;93.84;100057.28;6282023;20;3589819;-54
2022/05/06 01:24:52;;;;;;;;;39.67;35.00;;;;;12.76;96.32;100066.00;6279531;20;3607543;-50
2022/05/06 01:27:28;;;;;;;;;37.00;33.67;;;;;12.95;94.62;100058.47;6314115;20;3606642;-52
2022/05/06 01:29:57;;;;;;;;;35.00;32.33;;;;;13.06;93.54;100062.28;6280110;20;3608583;-55
2022/05/06 01:32:28;;;;;;;;;36.00;31.67;;;;;13.10;92.97;100063.81;6284328;20;3579441;-54
2022/05/06 01:35:00;;;;;;;;;31.67;28.67;;;;;13.06;93.39;100070.38;6278067;20;2847265;-53
2022/05/06 01:37:34;;;;;;;;;39.33;34.33;;;;;12.90;93.99;100062.41;6311652;20;3598254;-55
2022/05/06 01:40:04;;;;;;;;;37.00;34.00;;;;;12.87;94.67;100062.63;6282376;20;3597095;-54
2022/05/06 01:42:36;;;;;;;;;38.00;33.33;;;;;13.02;94.08;100060.75;6282960;20;3611700;-49
2022/05/06 01:45:10;;;;;;;;;34.67;33.67;;;;;12.74;95.17;100065.25;6282677;20;3578401;-54
2022/05/06 01:47:41;;;;;;;;;31.00;29.67;;;;;13.09;93.29;100056.72;6281999;20;3578411;-51
2022/05/06 01:50:12;;;;;;;;;34.67;32.33;;;;;13.10;93.02;100064.66;6279880;20;3583592;-54
2022/05/06 01:52:41;;;;;;;;;36.00;33.33;;;;;12.81;94.10;100074.66;6314782;20;3597312;-51
2022/05/06 01:55:12;;;;;;;;;35.00;32.00;;;;;12.80;94.76;100072.94;6279100;20;3597090;-54
2022/05/06 01:57:42;;;;;;;;;33.00;30.67;;;;;13.00;93.48;100065.38;6280940;20;2836863;-53
2022/05/06 02:00:13;;;;;;;;;24.33;24.00;;;;;13.06;92.79;100067.66;6308658;20;2853598;-54
2022/05/06 02:02:42;;;;;;;;;34.33;30.33;;;;;12.89;93.46;100061.56;6311503;20;3591906;-53
2022/05/06 02:05:17;;;;;;;;;35.33;31.33;;;;;13.12;93.03;100061.88;6281427;20;3598202;-54
2022/05/06 02:07:55;;;;;;;;;28.00;28.00;;;;;12.79;94.25;100068.50;6279061;20;2857616;-52
2022/05/06 02:10:25;;;;;;;;;32.33;29.67;;;;;12.51;96.62;100072.97;6311207;20;3574310;-54
2022/05/06 02:12:54;;;;;;;;;32.33;28.33;;;;;12.36;98.04;100068.56;6310108;20;3596139;-53
2022/05/06 02:15:24;;;;;;;;;30.67;30.00;;;;;12.38;97.93;100066.63;6277886;20;2856665;-53
2022/05/06 02:17:52;;;;;;;;;29.00;28.33;;;;;12.13;99.91;100055.66;6314295;20;3590849;-54
2022/05/06 02:20:22;;;;;;;;;30.33;29.67;;;;;12.72;97.59;100059.09;6279413;20;3606851;-54
2022/05/06 02:22:51;;;;;;;;;30.67;30.33;;;;;12.54;97.46;100065.69;6313721;20;3586773;-53
2022/05/06 02:25:19;;;;;;;;;27.33;27.33;;;;;12.84;95.95;100052.91;6281873;20;3600260;-56
2022/05/06 02:27:50;;;;;;;;;25.67;24.33;;;;;12.71;95.68;100054.66;6282830;20;3587786;-53
2022/05/06 02:33:13;;;;;;;;;33.00;27.33;;;;;12.80;95.20;100056.78;6316539;20;3606529;-53
2022/05/06 02:35:44;;;;;;;;;35.00;31.67;;;;;12.75;95.13;100053.53;6282086;20;3584596;-52
2022/05/06 02:38:13;;;;;;;;;30.33;27.67;;;;;13.00;94.67;100054.59;6276444;20;2847192;-53
2022/05/06 02:40:42;;;;;;;;;29.33;27.33;;;;;13.07;93.37;100058.63;6312369;20;3592924;-53
2022/05/06 02:43:12;;;;;;;;;28.00;27.00;;;;;13.09;93.18;100065.66;6282029;20;2844074;-55
2022/05/06 02:45:41;;;;;;;;;29.67;29.67;;;;;12.79;95.05;100065.81;6284438;20;3606487;-52
2022/05/06 02:48:10;;;;;;;;;26.00;22.50;;;;;12.95;95.06;100052.19;6280595;20;2846083;-53
2022/05/06 02:50:41;;;;;;;;;31.00;28.00;;;;;12.58;95.83;100056.41;6282069;20;3598223;-48
2022/05/06 02:53:10;;;;;;;;;30.00;29.00;;;;;12.59;97.19;100058.16;6284753;20;3584766;-49
2022/05/06 02:55:39;;;;;;;;;32.00;29.00;;;;;13.02;94.00;100060.75;6280737;20;2854582;-48
2022/05/06 02:58:09;;;;;;;;;25.67;25.67;;;;;12.99;93.45;100069.91;6315683;20;3587173;-49
2022/05/06 03:00:39;;;;;;;;;27.33;26.33;;;;;13.10;92.73;100067.38;6277959;20;2842130;-47
2022/05/06 03:03:08;;;;;;;;;26.33;26.33;;;;;12.79;94.29;100065.81;6315691;20;3602387;-50
2022/05/06 03:05:37;;;;;;;;;29.67;29.33;;;;;12.78;94.74;100074.88;6280782;20;2859790;-49
2022/05/06 03:08:06;;;;;;;;;25.67;25.00;;;;;13.08;92.67;100068.44;6313613;20;3583645;-49
2022/05/06 03:10:35;;;;;;;;;28.67;27.33;;;;;13.25;91.19;100068.19;6282643;20;3600302;-50
2022/05/06 03:13:04;;;;;;;;;28.00;25.33;;;;;13.17;91.58;100062.44;6281182;20;2856612;-48
2022/05/06 03:15:34;;;;;;;;;27.67;26.00;;;;;13.10;91.71;100056.59;6312595;20;3602426;-48
2022/05/06 03:18:04;;;;;;;;;31.67;31.00;;;;;13.10;91.42;100063.81;6278399;20;2857646;-48
2022/05/06 03:20:34;;;;;;;;;26.67;24.67;;;;;13.18;91.18;100066.88;6309433;20;2846109;-50
2022/05/06 03:23:03;;;;;;;;;26.33;24.67;;;;;13.11;91.00;100069.13;6309853;20;2849289;-47
2022/05/06 03:25:33;;;;;;;;;26.33;26.33;;;;;13.07;92.09;100069.41;6309649;20;3600253;-46
2022/05/06 03:28:07;;;;;;;;;28.67;25.33;;;;;12.94;92.18;100074.75;6312442;20;3591883;-48
2022/05/06 03:30:44;;;;;;;;;28.67;27.33;;;;;13.15;90.59;100072.47;6310163;20;2856549;-49
2022/05/06 03:33:16;;;;;;;;;23.50;23.50;;;;;13.15;90.50;100072.47;6308069;20;2844123;-50
2022/05/06 03:35:45;;;;;;;;;25.00;22.50;;;;;13.04;90.99;100067.78;6278609;20;2854404;-47
2022/05/06 03:38:14;;;;;;;;;25.67;25.00;;;;;13.09;90.52;100064.78;6279057;20;2850315;-47
2022/05/06 03:40:43;;;;;;;;;21.00;19.50;;;;;12.94;90.90;100063.97;6308490;20;2835693;-50
2022/05/06 03:43:12;;;;;;;;;27.00;27.00;;;;;12.95;91.19;100065.69;6280222;20;2794004;-48
2022/05/06 03:45:40;;;;;;;;;26.00;25.00;;;;;12.92;91.46;100077.53;6277174;20;2852336;-46
2022/05/06 03:48:09;;;;;;;;;27.00;24.50;;;;;13.21;89.96;100071.19;6283113;20;2840931;-48
2022/05/06 03:53:28;;;;;;;;;27.00;23.67;;;;;13.14;89.83;100078.84;6315597;20;2846138;-48
2022/05/06 03:55:57;;;;;;;;;24.67;24.67;;;;;13.11;91.18;100088.00;6319578;20;3577332;-50
2022/05/06 03:58:25;;;;;;;;;24.50;24.50;;;;;12.81;92.74;100090.84;6284166;20;2842950;-51
2022/05/06 04:00:55;;;;;;;;;25.00;25.00;;;;;12.77;92.90;100094.72;6280375;20;2856599;-49
2022/05/06 04:03:24;;;;;;;;;29.67;26.67;;;;;13.02;92.54;100083.19;6316817;20;3610728;-50
2022/05/06 04:05:54;;;;;;;;;29.00;25.00;;;;;13.53;89.21;100093.34;6279271;20;2848566;-52
2022/05/06 04:08:23;;;;;;;;;23.00;23.00;;;;;13.24;89.45;100096.13;6316833;20;2846122;-52
2022/05/06 04:10:52;;;;;;;;;25.67;25.67;;;;;12.93;92.52;100100.84;6284426;20;3576407;-55
2022/05/06 04:13:21;;;;;;;;;29.67;28.00;;;;;12.85;94.27;100097.78;6283292;20;2850360;-49
2022/05/06 04:15:50;;;;;;;;;30.33;27.00;;;;;12.83;94.48;100109.63;6312822;20;3589978;-52
2022/05/06 04:18:19;;;;;;;;;29.00;26.67;;;;;13.22;91.55;100100.75;6283406;20;3594190;-52
2022/05/06 04:23:37;;;;;;;;;27.33;26.67;;;;;13.35;90.12;100101.72;6281504;20;2850538;-55
2022/05/06 04:26:10;;;;;;;;;29.00;27.00;;;;;13.08;91.55;100104.34;6318538;20;3598158;-52
2022/05/06 04:28:41;;;;;;;;;26.67;26.67;;;;;12.72;94.96;100104.91;6285800;20;3596237;-53
2022/05/06 04:31:10;;;;;;;;;31.33;27.67;;;;;12.69;95.73;100107.78;6319430;20;3601318;-50
2022/05/06 04:33:41;;;;;;;;;36.67;32.00;;;;;12.81;95.82;100112.38;6283688;20;3621225;-50
2022/05/06 04:36:10;;;;;;;;;27.67;27.33;;;;;13.06;94.27;100094.63;6318854;20;3600324;-47
2022/05/06 04:38:38;;;;;;;;;32.50;29.50;;;;;13.12;94.21;100108.59;6282521;20;2833801;-54
2022/05/06 04:41:08;;;;;;;;;32.33;27.33;;;;;13.22;91.97;100105.25;6283580;20;3602387;-54
2022/05/06 04:43:37;;;;;;;;;32.67;29.33;;;;;13.31;92.10;100116.34;6318105;20;3608639;-54
2022/05/06 04:46:05;;;;;;;;;25.67;25.67;;;;;13.18;92.84;100110.88;6287264;20;3576303;-52
2022/05/06 04:48:35;;;;;;;;;30.00;28.00;;;;;13.06;94.60;100117.06;6281449;20;3610816;-54
2022/05/06 04:51:04;;;;;;;;;33.33;31.33;;;;;13.60;91.83;100116.25;6318563;20;3598228;-52
2022/05/06 04:53:33;;;;;;;;;35.33;32.00;;;;;13.22;93.52;100111.56;6283738;20;3598154;-51
2022/05/06 04:56:02;;;;;;;;;28.67;28.00;;;;;13.15;95.26;100111.06;6314660;20;3600219;-48
2022/05/06 04:58:30;;;;;;;;;34.00;31.67;;;;;13.23;94.17;100115.97;6283949;20;3601309;-54
2022/05/06 05:01:01;;;;;;;;;35.33;32.00;;;;;13.69;92.18;100131.84;6282781;20;3588810;-54
2022/05/06 05:03:30;;;;;;;;;35.00;29.00;;;;;13.71;92.65;100129.88;6280376;20;3595057;-55
2022/05/06 05:05:59;;;;;;;;;34.67;31.67;;;;;13.88;90.42;100134.16;6279002;20;2855563;-55
2022/05/06 05:08:28;;;;;;;;;31.00;31.00;;;;;13.79;91.89;100124.81;6317128;20;3575378;-54
2022/05/06 05:11:02;;;;;;;;;33.33;32.00;;;;;14.14;90.74;100132.34;6277755;20;2845030;-54
2022/05/06 05:13:38;;;;;;;;;33.33;27.67;;;;;15.21;86.28;100128.38;6312109;20;3610384;-54
2022/05/06 05:16:07;;;;;;;;;34.67;30.67;;;;;15.02;84.48;100126.16;6314685;20;3579430;-54
2022/05/06 05:18:35;;;;;;;;;28.67;26.00;;;;;15.01;84.48;100125.31;6287454;20;3594002;-54
2022/05/06 05:21:05;;;;;;;;;34.00;27.33;;;;;14.79;85.13;100133.22;6288195;20;3621117;-55
2022/05/06 05:23:34;;;;;;;;;28.00;28.00;;;;;14.77;85.30;100132.47;6316209;20;3600211;-56
2022/05/06 05:26:03;;;;;;;;;26.00;26.00;;;;;14.95;85.62;100130.28;6289806;20;3593992;-55
2022/05/06 05:28:31;;;;;;;;;27.00;25.00;;;;;14.88;85.82;100129.88;6289769;20;3598196;-55
2022/05/06 05:31:00;;;;;;;;;27.33;25.67;;;;;14.83;86.59;100122.09;6284256;20;3585687;-56
2022/05/06 05:33:29;;;;;;;;;30.00;28.33;;;;;14.93;86.62;100135.81;6289838;20;3593001;-53
2022/05/06 05:35:57;;;;;;;;;33.67;29.33;;;;;14.83;86.87;100130.22;6290516;20;3579540;-56
2022/05/06 05:38:26;;;;;;;;;30.67;29.33;;;;;14.98;86.88;100133.66;6283225;20;3602331;-55
2022/05/06 05:40:55;;;;;;;;;29.67;29.33;;;;;14.65;87.09;100136.94;6285833;20;2859714;-57
2022/05/06 05:48:58;;;;;;;;;35.33;31.67;;;;;15.05;85.20;100140.31;6288541;20;3590868;-52
2022/05/06 05:51:28;;;;;;;;;36.00;31.00;;;;;14.89;87.01;100139.72;6286098;20;2848267;-56
2022/05/06 05:53:56;;;;;;;;;31.33;30.67;;;;;15.00;85.85;100141.63;6319413;20;3603403;-55
2022/05/06 05:56:25;;;;;;;;;36.00;33.33;;;;;15.31;84.13;100148.38;6288189;20;3602318;-55
2022/05/06 05:58:55;;;;;;;;;26.67;26.00;;;;;15.17;83.21;100152.09;6285503;20;2852541;-56
2022/05/06 06:01:23;;;;;;;;;29.00;28.00;;;;;15.46;83.20;100147.22;6319408;20;3588904;-56
2022/05/06 06:03:52;;;;;;;;;34.00;31.00;;;;;15.50;83.27;100146.00;6285004;20;2720064;-57
2022/05/06 06:06:21;;;;;;;;;30.00;28.00;;;;;15.40;83.74;100144.97;6319177;20;3602410;-57
2022/05/06 06:08:50;;;;;;;;;35.00;31.00;;;;;15.25;85.22;100141.56;6285365;20;3597133;-57
2022/05/06 06:11:19;;;;;;;;;30.33;29.33;;;;;15.70;83.34;100141.00;6318779;20;3579407;-56
2022/05/06 06:13:48;;;;;;;;;32.33;30.00;;;;;15.53;83.78;100144.91;6287529;20;3597099;-54
2022/05/06 06:16:17;;;;;;;;;30.33;28.00;;;;;15.61;84.81;100147.06;6288714;20;3585633;-54
2022/05/06 06:18:47;;;;;;;;;31.00;29.67;;;;;15.75;83.97;100155.91;6287879;20;3583582;-55
2022/05/06 06:21:15;;;;;;;;;33.00;27.33;;;;;15.59;82.89;100161.56;6288742;20;3614809;-56
2022/05/06 06:23:44;;;;;;;;;37.67;30.33;;;;;15.73;83.16;100157.00;6286124;20;3605465;-55
2022/05/06 06:26:13;;;;;;;;;31.67;31.00;;;;;15.88;82.79;100165.81;6289052;20;3600308;-53
2022/05/06 06:28:41;;;;;;;;;33.67;32.33;;;;;15.99;82.47;100164.00;6289192;20;3601261;-57
2022/05/06 06:31:10;;;;;;;;;29.33;29.33;;;;;15.99;81.22;100161.28;6285580;20;3598294;-54
2022/05/06 06:33:40;;;;;;;;;30.33;29.00;;;;;16.13;81.25;100167.50;6285588;20;3604413;-56
2022/05/06 06:36:09;;;;;;;;;32.33;30.00;;;;;16.19;81.92;100158.88;6319325;20;3574290;-54
2022/05/06 06:38:38;;;;;;;;;32.00;30.00;;;;;15.73;84.88;100165.13;6284811;20;3588925;-53
2022/05/06 06:41:09;;;;;;;;;29.67;29.67;;;;;15.92;83.50;100165.44;6286359;20;3584626;-53
2022/05/06 06:43:42;;;;;;;;;28.33;27.33;;;;;15.77;84.55;100163.88;6286992;20;3593000;-55
2022/05/06 06:46:11;;;;;;;;;28.00;27.00;;;;;15.73;83.53;100163.28;6286116;20;3595049;-55
2022/05/06 06:48:40;;;;;;;;;31.67;31.00;;;;;16.29;80.63;100162.59;6286789;20;3592051;-56
2022/05/06 06:51:10;;;;;;;;;30.00;26.33;;;;;16.16;80.06;100169.97;6287032;20;3598196;-55
2022/05/06 06:53:39;;;;;;;;;28.33;28.00;;;;;16.06;81.32;100174.34;6286383;20;3600631;-56
2022/05/06 06:56:07;;;;;;;;;33.67;31.00;;;;;16.36;80.46;100165.72;6286634;20;3586690;-55
2022/05/06 06:58:36;;;;;;;;;28.33;24.67;;;;;16.27;80.62;100166.41;6286585;20;3593990;-53
2022/05/06 07:01:05;;;;;;;;;50.33;42.33;;;;;16.33;81.05;100165.97;6285856;20;3610657;-55
2022/05/06 07:03:34;;;;;;;;;69.67;57.67;;;;;16.59;80.53;100169.34;6320266;20;3631894;-55
2022/05/06 07:11:53;;;;;;;;;32.67;30.00;;;;;16.46;81.47;100162.16;6285152;20;3586712;-56
2022/05/06 07:14:23;;;;;;;;;37.00;32.00;;;;;16.63;81.95;100162.66;6285812;20;3590957;-56
2022/05/06 07:16:53;;;;;;;;;34.33;32.33;;;;;16.94;81.41;100160.28;6285604;20;3597124;-53
2022/05/06 07:19:23;;;;;;;;;40.67;34.00;;;;;17.00;80.89;100170.63;6284842;20;3584629;-54
2022/05/06 07:21:51;;;;;;;;;43.50;36.00;;;;;16.21;82.77;100167.75;6279814;20;2856567;-52
2022/05/06 07:24:21;;;;;;;;;42.67;33.67;;;;;16.36;84.14;100166.56;6292558;20;3622230;-55
2022/05/06 07:26:50;;;;;;;;;41.67;34.67;;;;;16.34;84.45;100171.25;6295387;20;3583544;-56
2022/05/06 07:29:19;;;;;;;;;54.33;42.33;;;;;16.47;83.61;100165.72;6289813;20;3617929;-53
2022/05/06 07:31:48;;;;;;;;;44.00;36.00;;;;;16.76;83.32;100168.00;6319339;20;3597177;-51
2022/05/06 07:34:17;;;;;;;;;32.67;30.00;;;;;16.95;82.12;100172.84;6290279;20;3588747;-54
2022/05/06 07:36:45;;;;;;;;;30.67;29.00;;;;;17.00;82.41;100170.63;6289017;20;3572148;-53
2022/05/06 07:39:16;;;;;;;;;33.33;30.00;;;;;17.08;82.64;100168.13;6290297;20;3574325;-52
2022/05/06 07:41:44;;;;;;;;;31.67;30.00;;;;;17.17;82.24;100175.56;6290535;20;3583570;-49
2022/05/06 07:44:13;;;;;;;;;34.00;32.00;;;;;17.19;82.63;100169.97;6292234;20;3588955;-53
2022/05/06 07:46:42;;;;;;;;;31.33;30.33;;;;;17.47;80.25;100171.31;6290053;20;3591953;-54
2022/05/06 07:49:11;;;;;;;;;29.33;28.00;;;;;17.03;81.36;100170.34;6291935;20;3596105;-52
2022/05/06 07:51:40;;;;;;;;;31.67;30.00;;;;;17.27;79.70;100173.81;6289762;20;3585692;-52
2022/05/06 07:54:09;;;;;;;;;36.00;32.00;;;;;17.62;78.99;100177.31;6291552;20;3613755;-50
2022/05/06 07:56:38;;;;;;;;;30.33;28.00;;;;;17.73;77.05;100172.72;6292418;20;3583663;-55
2022/05/06 07:59:06;;;;;;;;;30.00;29.67;;;;;17.41;77.79;100185.38;6289193;20;3582504;-56
2022/05/06 08:04:35;;;;;;;;;32.67;31.67;;;;;17.60;77.36;100185.59;6290125;20;3583594;-55
2022/05/06 08:07:08;;;;;;;;;34.33;32.00;;;;;18.16;77.63;100179.09;6289067;20;3592973;-56
2022/05/06 08:09:36;;;;;;;;;31.67;27.67;;;;;18.43;75.47;100175.88;6291754;20;3612763;-57
2022/05/06 08:12:07;;;;;;;;;32.67;28.00;;;;;18.76;73.99;100180.25;6288466;20;3585752;-57
2022/05/06 08:14:36;;;;;;;;;32.00;29.50;;;;;18.79;73.99;100177.25;6292538;20;3479489;-54
2022/05/06 08:17:05;;;;;;;;;30.67;27.33;;;;;18.57;75.32;100170.09;6319583;20;3601265;-54
2022/05/06 08:19:34;;;;;;;;;33.67;31.00;;;;;18.46;74.62;100170.19;6288420;20;3602317;-55
2022/05/06 08:22:03;;;;;;;;;31.00;30.00;;;;;18.75;75.20;100172.25;6289250;20;3574258;-56
2022/05/06 08:24:31;;;;;;;;;31.00;30.67;;;;;18.84;75.70;100174.16;6290936;20;3594028;-55
2022/05/06 08:27:01;;;;;;;;;27.67;21.00;;;;;18.71;75.64;100176.19;6289728;20;3582626;-56
2022/05/06 08:29:29;;;;;;;;;40.00;35.33;;;;;19.10;74.58;100177.28;6293683;20;3609621;-56
2022/05/06 08:31:58;;;;;;;;;34.33;31.67;;;;;19.27;73.72;100183.91;6288797;20;3600283;-56
2022/05/06 08:34:28;;;;;;;;;43.25;34.00;;;;;19.51;73.59;100187.16;6291764;20;3621069;-54
2022/05/06 08:36:57;;;;;;;;;18.50;18.50;;;;;19.72;71.22;100183.47;6319037;20;2832568;-57
2022/05/06 08:39:25;;;;;;;;;25.33;25.33;;;;;19.22;71.46;100178.03;6288399;20;3584575;-57
2022/05/06 08:41:56;;;;;;;;;31.67;29.00;;;;;19.25;71.30;100183.22;6289843;20;3606580;-56
2022/05/06 08:52:53;;;;;;;;;25.33;25.33;;;;;20.88;67.33;100193.50;6287805;20;3598163;-50
2022/05/06 08:55:22;;;;;;;;;30.00;28.67;;;;;20.08;69.94;100184.66;6288668;20;3596085;-48
2022/05/06 08:57:51;;;;;;;;;24.00;24.00;;;;;20.54;67.71;100180.38;6289219;20;3599284;-48
2022/05/06 09:00:28;;;;;;;;;29.67;29.33;;;;;20.90;66.59;100186.00;6288601;20;3602357;-49
2022/05/06 09:02:56;;;;;;;;;23.00;23.00;;;;;20.94;65.56;100183.84;6287931;20;3591923;-50
2022/05/06 09:05:25;;;;;;;;;28.67;24.33;;;;;20.60;66.08;100184.38;6287905;20;3598265;-50
2022/05/06 09:08:02;;;;;;;;;21.00;21.00;;;;;20.44;67.16;100192.28;6290941;20;3581623;-50
2022/05/06 09:10:31;;;;;;;;;25.00;21.33;;;;;20.59;65.12;100193.56;6288199;20;3574330;-51
2022/05/06 09:13:01;;;;;;;;;21.50;19.00;;;;;20.91;64.16;100193.19;6286335;20;2844009;-52
2022/05/06 09:18:22;;;;;;;;;25.00;22.67;;;;;20.28;66.17;100184.69;6317736;20;3589796;-48
2022/05/06 09:21:14;;;;;;;;;22.67;22.67;;;;;20.21;66.53;100186.25;6288971;20;3591886;-48
2022/05/06 09:23:43;;;;;;;;;25.67;25.67;;;;;19.99;66.16;100190.13;6287427;20;3584627;-50
2022/05/06 09:26:18;;;;;;;;;28.00;26.33;;;;;20.50;67.00;100194.41;6288817;20;3596140;-53
2022/05/06 09:28:47;;;;;;;;;31.67;30.00;;;;;20.92;64.52;100191.31;6289989;20;3601259;-51
2022/05/06 09:31:15;;;;;;;;;27.00;23.67;;;;;21.01;63.05;100191.28;6290853;20;3600216;-52
2022/05/06 09:33:46;;;;;;;;;25.00;25.00;;;;;21.31;64.03;100193.91;6289258;20;3590868;-51
2022/05/06 09:36:29;;;;;;;;;25.33;25.00;;;;;21.67;61.73;100201.22;6288058;20;3602383;-50
2022/05/06 09:39:10;;;;;;;;;27.33;24.00;;;;;21.85;62.01;100200.34;6287218;20;3602321;-50
2022/05/06 09:41:41;;;;;;;;;26.33;25.67;;;;;20.97;64.87;100200.78;6317350;20;3598140;-49
2022/05/06 09:44:12;;;;;;;;;23.33;20.33;;;;;21.11;62.71;100202.16;6287124;20;3576428;-51
2022/05/06 09:46:40;;;;;;;;;26.00;22.33;;;;;21.23;63.51;100191.91;6288396;20;3592946;-49
2022/05/06 09:49:11;;;;;;;;;22.00;22.00;;;;;21.25;61.62;100195.38;6287216;20;3580590;-48
2022/05/06 09:52:13;;;;;;;;;23.00;21.33;;;;;21.77;61.70;100190.19;6291114;20;3579383;-54
2022/05/06 09:54:44;;;;;;;;;23.67;21.33;;;;;22.21;61.52;100197.69;6289799;20;3587774;-53
2022/05/06 09:57:18;;;;;;;;;25.00;23.33;;;;;21.77;61.70;100194.81;6286292;20;3574222;-50
2022/05/06 09:59:48;;;;;;;;;25.00;24.67;;;;;21.35;63.74;100190.69;6286455;20;3588744;-47
2022/05/06 10:02:18;;;;;;;;;26.00;24.67;;;;;22.62;59.43;100196.13;6290606;20;3584683;-47
2022/05/06 10:04:48;;;;;;;;;20.33;19.67;;;;;22.25;58.76;100197.22;6290045;20;3576378;-49
2022/05/06 10:07:19;;;;;;;;;22.00;22.00;;;;;22.09;58.56;100192.41;6287168;20;3570100;-50
2022/05/06 10:10:06;;;;;;;;;21.00;21.00;;;;;22.18;59.82;100197.97;6287774;20;3587835;-50
2022/05/06 10:12:46;;;;;;;;;25.33;24.00;;;;;22.45;60.40;100194.28;6287557;20;3580853;-48
2022/05/06 10:15:15;;;;;;;;;20.67;19.67;;;;;22.14;59.74;100187.34;6284069;20;3576354;-48
2022/05/06 10:17:55;;;;;;;;;22.67;22.67;;;;;21.81;59.78;100188.03;6285877;20;3583582;-50
2022/05/06 10:23:15;;;;;;;;;25.00;24.00;;;;;22.29;62.44;100189.53;6287336;20;3581893;-48
2022/05/06 10:25:53;;;;;;;;;26.00;25.33;;;;;22.42;61.21;100181.78;6283744;20;3588753;-47
2022/05/06 10:34:13;;;;;;;;;19.33;19.33;;;;;22.10;61.84;100185.06;6286644;20;3581494;-48
2022/05/06 10:36:48;;;;;;;;;21.33;19.67;;;;;22.19;60.33;100180.56;6288410;20;3578420;-47
2022/05/06 10:39:33;;;;;;;;;22.00;20.33;;;;;21.89;59.18;100171.69;6288958;20;3568035;-50
2022/05/06 10:42:16;;;;;;;;;23.67;22.33;;;;;22.54;59.90;100175.03;6287730;20;3579411;-50
2022/05/06 10:44:48;;;;;;;;;25.00;24.00;;;;;23.10;59.52;100170.09;6286294;20;3584687;-50
2022/05/06 10:47:19;;;;;;;;;22.33;21.00;;;;;23.17;57.92;100162.06;6289674;20;3585643;-52
2022/05/06 10:49:52;;;;;;;;;28.50;23.00;;;;;22.99;57.21;100160.28;6287389;20;3592912;-50
2022/05/06 10:52:42;;;;;;;;;24.33;20.00;;;;;22.88;58.29;100163.28;6318639;20;3573141;-48
2022/05/06 10:55:14;;;;;;;;;25.67;23.00;;;;;23.03;59.43;100160.81;6286635;20;3583670;-50
2022/05/06 10:57:57;;;;;;;;;21.67;21.67;;;;;23.11;58.89;100154.53;6284585;20;3585679;-50
2022/05/06 11:00:29;;;;;;;;;25.00;22.67;;;;;22.75;58.60;100152.78;6286590;20;3583547;-50
2022/05/06 11:02:59;;;;;;;;;25.67;24.00;;;;;22.61;57.84;100153.34;6288075;20;3584597;-48
2022/05/06 11:05:30;;;;;;;;;22.00;21.00;;;;;22.82;58.62;100150.22;6283528;20;3582526;-51
2022/05/06 11:08:02;;;;;;;;;32.50;27.00;;;;;22.98;59.02;100152.22;6287017;20;3604387;-47
2022/05/06 11:10:33;;;;;;;;;22.00;21.67;;;;;23.38;58.90;100151.56;6314111;20;3591918;-48
2022/05/06 11:13:25;;;;;;;;;17.67;17.67;;;;;22.95;58.65;100147.91;6319280;20;3569006;-49
2022/05/06 11:15:56;;;;;;;;;23.33;22.00;;;;;23.53;58.02;100150.91;6312426;20;3591942;-51
2022/05/06 11:18:25;;;;;;;;;21.50;18.50;;;;;23.62;56.54;100144.44;6315012;20;2828364;-50
2022/05/06 11:20:54;;;;;;;;;19.67;18.33;;;;;23.49;56.74;100144.06;6281194;20;3565069;-51
2022/05/06 11:23:29;;;;;;;;;22.00;19.67;;;;;23.26;56.84;100147.41;6314379;20;3574224;-53
2022/05/06 11:25:58;;;;;;;;;25.00;23.67;;;;;22.96;57.51;100138.72;6285157;20;3583546;-51
2022/05/06 11:28:30;;;;;;;;;27.00;22.67;;;;;23.00;57.95;100140.09;6316055;20;3585709;-50
2022/05/06 11:31:00;;;;;;;;;19.33;19.00;;;;;23.16;58.53;100133.81;6277830;20;3572135;-48
2022/05/06 11:33:34;;;;;;;;;21.67;19.00;;;;;22.89;57.83;100131.28;6285802;20;3553370;-50
2022/05/06 11:36:07;;;;;;;;;16.33;13.00;;;;;22.82;59.80;100131.06;6282493;20;3534639;-52
2022/05/06 11:38:46;;;;;;;;;23.33;23.00;;;;;23.05;58.72;100125.06;6283142;20;3591965;-47
2022/05/06 11:41:17;;;;;;;;;25.00;22.00;;;;;23.00;59.33;100120.91;6285450;20;1917987;-47
2022/05/06 11:43:47;;;;;;;;;27.00;22.67;;;;;23.14;57.96;100118.56;6311095;20;3589934;-50
2022/05/06 11:49:09;;;;;;;;;17.00;15.50;;;;;22.55;57.13;100119.28;6282474;20;2831508;-49
2022/05/06 11:51:45;;;;;;;;;19.00;18.00;;;;;23.18;55.42;100129.06;6283081;20;2834638;-47
2022/05/06 11:54:16;;;;;;;;;24.33;22.00;;;;;23.14;57.43;100119.44;6288622;20;3589866;-48
2022/05/06 11:56:47;;;;;;;;;22.00;22.00;;;;;23.51;57.33;100118.19;6281328;20;3585666;-48
2022/05/06 11:59:18;;;;;;;;;21.33;20.00;;;;;23.61;57.23;100115.28;6283403;20;2837860;-48